Time;durP1;ratioP1;P1;durP2;ratioP2;P2;SDS_P1;SDS_P2;PMS_P1;PMS_P2;Temp;Humidity;BMP_temperature;BMP_pressure;BME280_temperature;BME280_humidity;BME280_pressure;Samples;Min_cycle;Max_cycle;Signal;HPM_P1;HPM_P2
2022/11/12 00:01:54;;;;;;;5.32;0.90;;;;;;;;;;5033315;28;20044;-65
2022/11/12 00:04:21;;;;;;;4.97;1.20;;;;;;;;;;5033463;28;20017;-65
2022/11/12 00:06:48;;;;;;;3.10;0.90;;;;;;;;;;5032336;28;20498;-64
2022/11/12 00:09:15;;;;;;;6.03;1.08;;;;;;;;;;5033349;28;20789;-65
2022/11/12 00:11:42;;;;;;;4.40;1.05;;;;;;;;;;5033331;28;20108;-64
2022/11/12 00:14:09;;;;;;;7.00;0.90;;;;;;;;;;5048494;28;20036;-64
2022/11/12 00:16:36;;;;;;;4.22;1.08;;;;;;;;;;5033216;28;20041;-66
2022/11/12 00:19:03;;;;;;;3.13;1.10;;;;;;;;;;5033146;28;20021;-65
2022/11/12 00:21:30;;;;;;;3.90;0.90;;;;;;;;;;5032970;28;20443;-67
2022/11/12 00:23:57;;;;;;;4.93;0.93;;;;;;;;;;5032932;28;20033;-66
2022/11/12 00:26:24;;;;;;;3.17;1.00;;;;;;;;;;5033004;28;20044;-64
2022/11/12 00:28:51;;;;;;;3.60;0.90;;;;;;;;;;5033068;28;20627;-64
2022/11/12 00:31:18;;;;;;;2.42;0.90;;;;;;;;;;5032787;28;20132;-65
2022/11/12 00:33:45;;;;;;;9.57;1.45;;;;;;;;;;5032836;28;20108;-65
2022/11/12 00:36:12;;;;;;;10.73;1.80;;;;;;;;;;5032778;28;20022;-64
2022/11/12 00:38:39;;;;;;;8.85;1.85;;;;;;;;;;5032808;28;20541;-63
2022/11/12 00:41:06;;;;;;;14.10;2.00;;;;;;;;;;5032687;28;20025;-65
2022/11/12 00:43:33;;;;;;;13.57;2.25;;;;;;;;;;5045241;28;20061;-63
2022/11/12 00:46:00;;;;;;;17.58;2.35;;;;;;;;;;5010939;28;20033;-63
2022/11/12 00:48:27;;;;;;;18.75;2.58;;;;;;;;;;5026950;28;20120;-64
2022/11/12 00:51:04;;;;;;;21.45;2.33;;;;;;;;;;5026273;28;20037;-65
2022/11/12 00:53:31;;;;;;;14.23;2.45;;;;;;;;;;5017075;28;20038;-67
2022/11/12 00:56:02;;;;;;;17.42;2.70;;;;;;;;;;5023690;28;20032;-64
2022/11/12 00:58:30;;;;;;;22.30;2.90;;;;;;;;;;5031985;28;20025;-65
2022/11/12 01:00:57;;;;;;;23.60;4.05;;;;;;;;;;5046605;28;20091;-63
2022/11/12 01:03:24;;;;;;;40.35;3.97;;;;;;;;;;5032271;28;20037;-64
2022/11/12 01:05:51;;;;;;;24.25;4.20;;;;;;;;;;5030885;28;20029;-63
2022/11/12 01:08:18;;;;;;;31.55;3.97;;;;;;;;;;5026273;28;20034;-63
2022/11/12 01:10:45;;;;;;;21.17;4.45;;;;;;;;;;5023453;28;20029;-63
2022/11/12 01:13:12;;;;;;;19.98;4.68;;;;;;;;;;5047155;28;20026;-63
2022/11/12 01:15:42;;;;;;;24.73;4.78;;;;;;;;;;5031983;28;20041;-63
2022/11/12 01:18:08;;;;;;;25.83;5.03;;;;;;;;;;5031940;28;20025;-63
2022/11/12 01:20:37;;;;;;;28.70;4.90;;;;;;;;;;5031669;28;20029;-63
2022/11/12 01:23:05;;;;;;;28.90;5.13;;;;;;;;;;5030286;28;20041;-63
2022/11/12 01:25:32;;;;;;;27.45;5.32;;;;;;;;;;5031807;28;20494;-63
2022/11/12 01:27:59;;;;;;;24.15;4.90;;;;;;;;;;5031659;28;20388;-64
2022/11/12 01:30:26;;;;;;;25.75;4.97;;;;;;;;;;5031483;28;20055;-63
2022/11/12 01:32:53;;;;;;;27.23;4.70;;;;;;;;;;5031569;28;20399;-63
2022/11/12 01:35:20;;;;;;;27.98;5.15;;;;;;;;;;5030621;28;20022;-64
2022/11/12 01:37:47;;;;;;;31.25;4.78;;;;;;;;;;5028921;28;20112;-64
2022/11/12 01:40:14;;;;;;;24.63;4.05;;;;;;;;;;5030018;28;20113;-64
2022/11/12 01:42:41;;;;;;;26.83;4.53;;;;;;;;;;5030036;28;20034;-63
2022/11/12 01:45:14;;;;;;;18.30;4.70;;;;;;;;;;5030035;28;20045;-66
2022/11/12 01:47:42;;;;;;;26.15;4.13;;;;;;;;;;5029316;28;20469;-65
2022/11/12 01:50:35;;;;;;;24.02;4.18;;;;;;;;;;5030213;28;20024;-64
2022/11/12 01:53:08;;;;;;;24.88;3.75;;;;;;;;;;5029158;28;20046;-65
2022/11/12 01:55:38;;;;;;;22.15;4.20;;;;;;;;;;5029332;28;20033;-64
2022/11/12 01:58:09;;;;;;;38.95;5.88;;;;;;;;;;5024644;28;20112;-67
2022/11/12 02:00:36;;;;;;;23.80;4.10;;;;;;;;;;5029492;28;20040;-64
2022/11/12 02:03:08;;;;;;;25.85;4.53;;;;;;;;;;5029848;28;20033;-63
2022/11/12 02:05:36;;;;;;;24.95;4.28;;;;;;;;;;5027843;28;20029;-67
2022/11/12 02:08:06;;;;;;;19.73;3.58;;;;;;;;;;5030108;28;20542;-65
2022/11/12 02:10:36;;;;;;;17.52;3.78;;;;;;;;;;5023259;28;20396;-63
2022/11/12 02:15:48;;;;;;;17.33;3.10;;;;;;;;;;5021015;28;20045;-64
2022/11/12 02:18:15;;;;;;;19.52;3.53;;;;;;;;;;5019529;28;20021;-64
2022/11/12 02:20:43;;;;;;;17.13;3.40;;;;;;;;;;5013753;28;20032;-65
2022/11/12 02:23:13;;;;;;;16.10;3.55;;;;;;;;;;5020599;28;20433;-64
2022/11/12 02:25:40;;;;;;;14.52;3.17;;;;;;;;;;5032963;28;20033;-64
2022/11/12 02:28:08;;;;;;;19.45;3.78;;;;;;;;;;5033197;28;20072;-65
2022/11/12 02:30:41;;;;;;;17.80;3.47;;;;;;;;;;5033242;28;20033;-67
2022/11/12 02:33:09;;;;;;;24.63;4.05;;;;;;;;;;5034578;28;20063;-65
2022/11/12 02:35:36;;;;;;;25.55;3.78;;;;;;;;;;5033245;28;20029;-64
2022/11/12 02:38:03;;;;;;;24.42;3.67;;;;;;;;;;5034906;28;20049;-63
2022/11/12 02:40:30;;;;;;;18.88;3.60;;;;;;;;;;5034593;28;20036;-64
2022/11/12 02:42:58;;;;;;;17.20;3.00;;;;;;;;;;5024781;28;20037;-62
2022/11/12 02:45:26;;;;;;;23.10;2.97;;;;;;;;;;5031528;28;20036;-63
2022/11/12 02:47:53;;;;;;;20.88;3.80;;;;;;;;;;5030469;28;20036;-62
2022/11/12 02:50:20;;;;;;;22.95;3.30;;;;;;;;;;5021314;28;20026;-62
2022/11/12 02:52:47;;;;;;;17.33;3.45;;;;;;;;;;5013932;28;20044;-62
2022/11/12 02:55:14;;;;;;;22.52;3.60;;;;;;;;;;5022598;28;20029;-62
2022/11/12 02:57:41;;;;;;;20.38;3.75;;;;;;;;;;5013840;28;20057;-63
2022/11/12 03:00:09;;;;;;;19.42;3.40;;;;;;;;;;5012855;28;20034;-62
2022/11/12 03:02:57;;;;;;;20.33;3.20;;;;;;;;;;5012879;28;20468;-62
2022/11/12 03:05:25;;;;;;;17.67;3.08;;;;;;;;;;5014618;28;20524;-62
2022/11/12 03:07:56;;;;;;;16.77;3.17;;;;;;;;;;5030776;28;20126;-63
2022/11/12 03:10:24;;;;;;;15.82;3.40;;;;;;;;;;5017644;28;20038;-63
2022/11/12 03:12:51;;;;;;;13.32;3.05;;;;;;;;;;5025769;28;20029;-62
2022/11/12 03:15:18;;;;;;;13.77;2.88;;;;;;;;;;5033891;28;20033;-63
2022/11/12 03:17:45;;;;;;;12.77;2.72;;;;;;;;;;5033871;28;20021;-63
2022/11/12 03:20:12;;;;;;;15.55;3.15;;;;;;;;;;5033902;28;20096;-63
2022/11/12 03:22:40;;;;;;;12.07;3.10;;;;;;;;;;5033429;28;20052;-62
2022/11/12 03:25:07;;;;;;;17.35;3.28;;;;;;;;;;5033839;28;20021;-62
2022/11/12 03:27:35;;;;;;;17.20;3.08;;;;;;;;;;5032982;28;20040;-62
2022/11/12 03:30:02;;;;;;;9.32;2.70;;;;;;;;;;5033748;28;20394;-62
2022/11/12 03:32:30;;;;;;;11.65;2.78;;;;;;;;;;5033771;28;20438;-63
2022/11/12 03:34:56;;;;;;;11.02;2.80;;;;;;;;;;5033905;28;20064;-63
2022/11/12 03:37:23;;;;;;;12.27;2.83;;;;;;;;;;5033909;28;20422;-63
2022/11/12 03:39:50;;;;;;;11.25;2.72;;;;;;;;;;5033572;28;20489;-63
2022/11/12 03:42:17;;;;;;;10.13;2.60;;;;;;;;;;5033735;28;20022;-63
2022/11/12 03:44:44;;;;;;;13.25;2.42;;;;;;;;;;5033687;28;20471;-62
2022/11/12 03:47:11;;;;;;;10.85;2.72;;;;;;;;;;5033623;28;20422;-61
2022/11/12 03:49:38;;;;;;;11.50;2.40;;;;;;;;;;5033391;28;20457;-63
2022/11/12 03:52:05;;;;;;;8.73;2.78;;;;;;;;;;5033580;28;20483;-61
2022/11/12 03:54:32;;;;;;;6.00;2.30;;;;;;;;;;5033652;28;20037;-63
2022/11/12 03:56:59;;;;;;;14.23;2.45;;;;;;;;;;5033437;28;20041;-63
2022/11/12 03:59:26;;;;;;;10.05;2.50;;;;;;;;;;5033436;28;20029;-63
2022/11/12 04:01:53;;;;;;;6.85;2.22;;;;;;;;;;5019438;28;20116;-63
2022/11/12 04:04:20;;;;;;;10.38;2.42;;;;;;;;;;5033435;28;20026;-61
2022/11/12 04:09:32;;;;;;;9.43;2.10;;;;;;;;;;5033352;28;20146;-63
2022/11/12 04:13:26;;;;;;;9.43;2.67;;;;;;;;;;5033339;28;20107;-62
2022/11/12 04:14:46;;;;;;;9.32;2.60;;;;;;;;;;5033956;28;20076;-61
2022/11/12 04:22:43;;;;;;;9.02;1.98;;;;;;;;;;5033279;28;20087;-63
2022/11/12 04:27:55;;;;;;;6.45;1.92;;;;;;;;;;5032834;28;20107;-61
2022/11/12 04:30:22;;;;;;;10.05;2.25;;;;;;;;;;5033041;28;20044;-63
2022/11/12 04:32:52;;;;;;;5.68;1.63;;;;;;;;;;5033001;28;20025;-63
2022/11/12 04:35:19;;;;;;;10.10;2.10;;;;;;;;;;5033075;28;20041;-63
2022/11/12 04:37:46;;;;;;;8.52;2.00;;;;;;;;;;5032838;28;20033;-63
2022/11/12 04:45:50;;;;;;;5.75;1.60;;;;;;;;;;5033004;28;20048;-61
2022/11/12 04:48:17;;;;;;;4.43;1.75;;;;;;;;;;5032681;28;20032;-63
2022/11/12 04:50:45;;;;;;;4.78;1.52;;;;;;;;;;5032651;28;20033;-61
2022/11/12 04:53:12;;;;;;;5.72;1.55;;;;;;;;;;5032458;28;20045;-61
2022/11/12 04:55:39;;;;;;;6.78;1.73;;;;;;;;;;5032613;28;20022;-63
2022/11/12 04:58:06;;;;;;;6.63;1.67;;;;;;;;;;5032652;28;20029;-63
2022/11/12 05:00:33;;;;;;;4.93;1.33;;;;;;;;;;5032486;28;20033;-63
2022/11/12 05:03:00;;;;;;;5.03;1.75;;;;;;;;;;5032592;28;20500;-61
2022/11/12 05:05:27;;;;;;;4.95;1.58;;;;;;;;;;5032444;28;20033;-63
2022/11/12 05:07:54;;;;;;;5.35;1.55;;;;;;;;;;5032580;28;20053;-63
2022/11/12 05:10:21;;;;;;;7.53;1.88;;;;;;;;;;5032339;28;20026;-62
2022/11/12 05:12:48;;;;;;;7.90;1.70;;;;;;;;;;5032718;28;20392;-63
2022/11/12 05:15:15;;;;;;;4.70;1.55;;;;;;;;;;5032479;28;20030;-61
2022/11/12 05:17:42;;;;;;;6.75;1.50;;;;;;;;;;5032358;28;20025;-61
2022/11/12 05:20:10;;;;;;;5.70;1.70;;;;;;;;;;5032344;28;20061;-63
2022/11/12 05:22:37;;;;;;;3.78;1.33;;;;;;;;;;5032323;28;20045;-61
2022/11/12 05:25:05;;;;;;;3.90;1.23;;;;;;;;;;5032454;28;20095;-61
2022/11/12 05:27:32;;;;;;;5.88;1.65;;;;;;;;;;5032293;28;20133;-62
2022/11/12 05:29:59;;;;;;;4.57;1.58;;;;;;;;;;5032165;28;20029;-61
2022/11/12 05:32:26;;;;;;;7.35;1.58;;;;;;;;;;5032190;28;20029;-62
2022/11/12 05:34:53;;;;;;;7.20;1.50;;;;;;;;;;5032265;28;20076;-61
2022/11/12 05:37:20;;;;;;;5.32;1.67;;;;;;;;;;5032420;28;20053;-63
2022/11/12 05:39:47;;;;;;;4.03;1.67;;;;;;;;;;5031911;28;20022;-61
2022/11/12 05:42:14;;;;;;;4.22;1.30;;;;;;;;;;5032118;28;20029;-63
2022/11/12 05:44:41;;;;;;;3.30;1.30;;;;;;;;;;5032155;28;20025;-61
2022/11/12 05:47:08;;;;;;;4.53;1.30;;;;;;;;;;5032105;28;20475;-61
2022/11/12 05:49:35;;;;;;;4.45;1.30;;;;;;;;;;5031822;28;20557;-62
2022/11/12 05:52:02;;;;;;;2.83;1.40;;;;;;;;;;5034996;28;20041;-61
2022/11/12 05:54:29;;;;;;;3.42;1.45;;;;;;;;;;5035997;28;20432;-63
2022/11/12 05:56:56;;;;;;;4.32;1.40;;;;;;;;;;5035759;28;20034;-61
2022/11/12 05:59:23;;;;;;;5.38;1.63;;;;;;;;;;5035869;28;20029;-61
2022/11/12 06:01:50;;;;;;;3.78;1.60;;;;;;;;;;5033753;28;20037;-62
2022/11/12 06:04:17;;;;;;;2.58;1.20;;;;;;;;;;5033814;28;20022;-63
2022/11/12 06:06:44;;;;;;;3.78;1.42;;;;;;;;;;5033621;28;20183;-63
2022/11/12 06:09:12;;;;;;;5.68;1.60;;;;;;;;;;5035047;28;20021;-62
2022/11/12 06:11:39;;;;;;;4.68;1.35;;;;;;;;;;5035380;28;20026;-61
2022/11/12 06:14:06;;;;;;;4.15;1.25;;;;;;;;;;5035652;28;20088;-61
2022/11/12 06:16:33;;;;;;;4.72;1.50;;;;;;;;;;5035587;28;20471;-63
2022/11/12 06:19:00;;;;;;;3.58;1.25;;;;;;;;;;5034757;28;20112;-63
2022/11/12 06:21:27;;;;;;;3.97;1.10;;;;;;;;;;5035014;28;20037;-63
2022/11/12 06:23:58;;;;;;;4.15;1.50;;;;;;;;;;5050786;28;20124;-62
2022/11/12 06:26:26;;;;;;;3.53;1.42;;;;;;;;;;5035381;28;20032;-63
2022/11/12 06:28:53;;;;;;;3.92;1.30;;;;;;;;;;5035372;28;20048;-63
2022/11/12 06:31:20;;;;;;;3.92;1.40;;;;;;;;;;5035294;28;20080;-61
2022/11/12 06:33:48;;;;;;;3.05;1.15;;;;;;;;;;5035059;28;20069;-63
2022/11/12 06:36:16;;;;;;;3.22;1.20;;;;;;;;;;5035096;28;20458;-62
2022/11/12 06:38:44;;;;;;;4.43;1.15;;;;;;;;;;5035208;28;20044;-63
2022/11/12 06:41:12;;;;;;;3.38;1.38;;;;;;;;;;5034789;28;20044;-63
2022/11/12 06:43:39;;;;;;;3.67;1.27;;;;;;;;;;5035057;28;20071;-63
2022/11/12 06:46:08;;;;;;;4.78;1.52;;;;;;;;;;5034971;28;20467;-63
2022/11/12 06:48:35;;;;;;;3.83;1.27;;;;;;;;;;5034860;28;20036;-61
2022/11/12 06:51:12;;;;;;;5.05;1.23;;;;;;;;;;5034679;28;20598;-61
2022/11/12 06:53:39;;;;;;;3.22;1.20;;;;;;;;;;5034778;28;20037;-63
2022/11/12 06:56:07;;;;;;;3.30;1.35;;;;;;;;;;5034787;28;20029;-61
2022/11/12 06:58:34;;;;;;;2.33;1.05;;;;;;;;;;5034217;28;20048;-62
2022/11/12 07:01:15;;;;;;;2.42;1.13;;;;;;;;;;5034560;28;20034;-61
2022/11/12 07:03:42;;;;;;;4.22;1.25;;;;;;;;;;5029619;28;20384;-63
2022/11/12 07:06:11;;;;;;;2.95;1.30;;;;;;;;;;5034621;28;20030;-62
2022/11/12 07:08:39;;;;;;;2.20;0.82;;;;;;;;;;5034350;28;20403;-62
2022/11/12 07:11:06;;;;;;;1.83;1.05;;;;;;;;;;5034492;28;20056;-63
2022/11/12 07:13:34;;;;;;;3.67;1.23;;;;;;;;;;5034497;28;20040;-62
2022/11/12 07:16:02;;;;;;;2.28;1.00;;;;;;;;;;5034321;28;20032;-62
2022/11/12 07:18:29;;;;;;;1.67;0.70;;;;;;;;;;5034484;28;20060;-62
2022/11/12 07:21:06;;;;;;;3.33;1.15;;;;;;;;;;5034067;28;20021;-61
2022/11/12 07:23:35;;;;;;;2.83;1.13;;;;;;;;;;5034402;28;20025;-63
2022/11/12 07:26:04;;;;;;;3.13;1.15;;;;;;;;;;5033629;28;20032;-62
2022/11/12 07:28:31;;;;;;;2.83;1.23;;;;;;;;;;5034269;28;20026;-61
2022/11/12 07:31:02;;;;;;;4.20;1.30;;;;;;;;;;5034019;28;20025;-62
2022/11/12 07:33:29;;;;;;;3.40;1.00;;;;;;;;;;5034243;28;20109;-61
2022/11/12 07:36:00;;;;;;;2.65;1.05;;;;;;;;;;5034044;28;20106;-62
2022/11/12 07:38:28;;;;;;;1.88;1.00;;;;;;;;;;5034058;28;20119;-63
2022/11/12 07:41:02;;;;;;;2.50;1.13;;;;;;;;;;5033855;28;20387;-62
2022/11/12 07:43:30;;;;;;;1.83;1.00;;;;;;;;;;5033890;28;20446;-62
2022/11/12 07:46:04;;;;;;;2.58;1.13;;;;;;;;;;5033765;28;20026;-63
2022/11/12 07:48:32;;;;;;;3.38;1.15;;;;;;;;;;5033911;28;20022;-63
2022/11/12 07:51:05;;;;;;;2.08;1.00;;;;;;;;;;5033602;28;20033;-62
2022/11/12 07:53:32;;;;;;;3.80;1.10;;;;;;;;;;5033691;28;20045;-63
2022/11/12 07:56:00;;;;;;;3.20;1.05;;;;;;;;;;5033608;28;20036;-63
2022/11/12 07:58:27;;;;;;;3.35;1.05;;;;;;;;;;5033556;28;20025;-63
2022/11/12 08:00:54;;;;;;;1.60;0.85;;;;;;;;;;5033840;28;20514;-61
2022/11/12 08:03:21;;;;;;;2.63;1.10;;;;;;;;;;5033592;28;20083;-61
2022/11/12 08:05:48;;;;;;;1.40;0.82;;;;;;;;;;5048666;28;20396;-62
2022/11/12 08:08:15;;;;;;;2.45;1.17;;;;;;;;;;5033527;28;20124;-62
2022/11/12 08:10:42;;;;;;;2.38;1.20;;;;;;;;;;5033182;28;20108;-61
2022/11/12 08:13:09;;;;;;;1.77;0.98;;;;;;;;;;5033211;28;20479;-62
2022/11/12 08:15:36;;;;;;;2.75;1.00;;;;;;;;;;5033226;28;20489;-63
2022/11/12 08:18:03;;;;;;;2.83;1.00;;;;;;;;;;5033241;28;20022;-63
2022/11/12 08:20:30;;;;;;;1.50;0.90;;;;;;;;;;5033061;28;20030;-62
2022/11/12 08:22:59;;;;;;;1.95;0.98;;;;;;;;;;5033122;28;20491;-63
2022/11/12 08:25:27;;;;;;;2.53;0.93;;;;;;;;;;5033292;28;20022;-60
2022/11/12 08:27:58;;;;;;;2.00;1.00;;;;;;;;;;5033020;28;20060;-62
2022/11/12 08:30:26;;;;;;;2.97;1.05;;;;;;;;;;5033001;28;20502;-63
2022/11/12 08:33:10;;;;;;;2.40;0.90;;;;;;;;;;5019074;28;20022;-63
2022/11/12 08:35:38;;;;;;;2.28;0.80;;;;;;;;;;5032993;28;20112;-61
2022/11/12 08:38:08;;;;;;;1.80;0.88;;;;;;;;;;5027897;28;20030;-63
2022/11/12 08:40:35;;;;;;;1.90;0.85;;;;;;;;;;5024579;28;20041;-61
2022/11/12 08:43:03;;;;;;;1.92;1.00;;;;;;;;;;5032317;28;20472;-63
2022/11/12 08:45:32;;;;;;;2.40;1.02;;;;;;;;;;5032880;28;20053;-63
2022/11/12 08:47:59;;;;;;;2.45;1.00;;;;;;;;;;5028175;28;20043;-63
2022/11/12 08:50:27;;;;;;;5.75;1.00;;;;;;;;;;5025939;28;20083;-62
2022/11/12 08:52:53;;;;;;;1.48;0.70;;;;;;;;;;5031832;28;20056;-62
2022/11/12 08:55:20;;;;;;;1.20;0.73;;;;;;;;;;5032504;28;20025;-63
2022/11/12 08:57:47;;;;;;;1.45;0.80;;;;;;;;;;5032568;28;20028;-63
2022/11/12 09:00:15;;;;;;;2.17;0.85;;;;;;;;;;5032453;28;20503;-63
2022/11/12 09:02:42;;;;;;;1.95;0.80;;;;;;;;;;5032578;28;20430;-61
2022/11/12 09:05:09;;;;;;;2.78;0.70;;;;;;;;;;5032990;28;20462;-63
2022/11/12 09:07:36;;;;;;;1.23;0.70;;;;;;;;;;5032433;28;20041;-61
2022/11/12 09:10:03;;;;;;;2.22;1.08;;;;;;;;;;5032179;28;20025;-61
2022/11/12 09:12:30;;;;;;;1.67;0.82;;;;;;;;;;5032354;28;20026;-63
2022/11/12 09:14:57;;;;;;;2.25;1.00;;;;;;;;;;5032523;28;20021;-63
2022/11/12 09:17:24;;;;;;;2.25;0.80;;;;;;;;;;5032304;28;20034;-63
2022/11/12 09:19:51;;;;;;;1.30;0.70;;;;;;;;;;5032210;28;20047;-63
2022/11/12 09:22:18;;;;;;;1.73;0.80;;;;;;;;;;5032178;28;20391;-61
2022/11/12 09:24:45;;;;;;;1.80;0.80;;;;;;;;;;5032485;28;20044;-62
2022/11/12 09:27:12;;;;;;;1.60;0.80;;;;;;;;;;5035802;28;20025;-63
2022/11/12 09:29:39;;;;;;;2.45;1.08;;;;;;;;;;5036225;28;20117;-62
2022/11/12 09:32:06;;;;;;;1.80;0.60;;;;;;;;;;5036391;28;20375;-63
2022/11/12 09:34:33;;;;;;;1.50;0.73;;;;;;;;;;5036266;28;20040;-63
2022/11/12 09:37:00;;;;;;;1.55;0.82;;;;;;;;;;5036352;28;20053;-63
2022/11/12 09:39:27;;;;;;;1.65;0.80;;;;;;;;;;5036020;28;20040;-63
2022/11/12 09:41:54;;;;;;;6.45;0.88;;;;;;;;;;5036117;28;20394;-63
2022/11/12 09:44:23;;;;;;;1.77;0.80;;;;;;;;;;5051698;28;20033;-62
2022/11/12 09:47:01;;;;;;;1.35;0.77;;;;;;;;;;5035183;28;20407;-63
2022/11/12 09:49:36;;;;;;;1.27;0.68;;;;;;;;;;5035974;28;20116;-62
2022/11/12 09:52:06;;;;;;;7.70;0.95;;;;;;;;;;5035652;28;20400;-62
2022/11/12 09:54:35;;;;;;;4.78;0.82;;;;;;;;;;5035883;28;20065;-62
2022/11/12 09:57:02;;;;;;;3.60;0.65;;;;;;;;;;5035868;28;20029;-62
2022/11/12 09:59:33;;;;;;;1.48;0.70;;;;;;;;;;5035412;28;20096;-63
2022/11/12 10:02:22;;;;;;;1.48;0.65;;;;;;;;;;5034497;28;20029;-62
2022/11/12 10:05:01;;;;;;;2.42;0.90;;;;;;;;;;5035736;28;20041;-62
2022/11/12 10:07:39;;;;;;;1.40;0.70;;;;;;;;;;5035654;28;20120;-63
2022/11/12 10:10:18;;;;;;;2.58;1.10;;;;;;;;;;5050958;28;20029;-63
2022/11/12 10:12:54;;;;;;;1.50;0.85;;;;;;;;;;5022351;28;20117;-62
2022/11/12 10:18:13;;;;;;;3.03;1.13;;;;;;;;;;5035537;28;20037;-62
2022/11/12 10:20:58;;;;;;;1.30;0.60;;;;;;;;;;5035285;28;20033;-62
2022/11/12 10:23:28;;;;;;;3.20;0.98;;;;;;;;;;5035619;28;20483;-63
2022/11/12 10:25:57;;;;;;;1.50;0.90;;;;;;;;;;5035243;28;20119;-63
2022/11/12 10:28:27;;;;;;;1.65;0.68;;;;;;;;;;5035331;28;20060;-62
2022/11/12 10:30:57;;;;;;;2.45;0.70;;;;;;;;;;5035074;28;20057;-63
2022/11/12 10:33:24;;;;;;;0.98;0.55;;;;;;;;;;5035255;28;20107;-62
2022/11/12 10:35:51;;;;;;;1.38;0.68;;;;;;;;;;5050603;28;20033;-62
2022/11/12 10:38:20;;;;;;;4.40;0.80;;;;;;;;;;5035235;28;20043;-62
2022/11/12 10:40:47;;;;;;;2.45;0.70;;;;;;;;;;5035094;28;20064;-63
2022/11/12 10:43:17;;;;;;;2.08;0.70;;;;;;;;;;5035004;28;20485;-62
2022/11/12 10:45:46;;;;;;;2.38;0.73;;;;;;;;;;5035040;28;20029;-62
2022/11/12 10:48:23;;;;;;;1.58;0.80;;;;;;;;;;5035012;28;20022;-62
2022/11/12 10:50:50;;;;;;;1.75;0.77;;;;;;;;;;5034778;28;20029;-63
2022/11/12 10:53:29;;;;;;;1.20;0.70;;;;;;;;;;5034544;28;20099;-63
2022/11/12 10:55:58;;;;;;;1.15;0.70;;;;;;;;;;5034716;28;20032;-62
2022/11/12 10:58:25;;;;;;;1.88;0.70;;;;;;;;;;5034744;28;20116;-63
2022/11/12 11:00:59;;;;;;;1.25;0.73;;;;;;;;;;5034871;28;20391;-62
2022/11/12 11:03:34;;;;;;;1.70;0.70;;;;;;;;;;5050160;28;20033;-62
2022/11/12 11:06:06;;;;;;;3.80;0.88;;;;;;;;;;5034522;28;20087;-63
2022/11/12 11:08:39;;;;;;;1.50;0.70;;;;;;;;;;5034562;28;20069;-63
2022/11/12 11:11:18;;;;;;;2.38;0.90;;;;;;;;;;5034509;28;20045;-62
2022/11/12 11:13:46;;;;;;;1.55;0.80;;;;;;;;;;5034379;28;20056;-63
2022/11/12 11:16:14;;;;;;;2.70;0.63;;;;;;;;;;5034047;28;20017;-62
2022/11/12 11:18:42;;;;;;;0.88;0.60;;;;;;;;;;5034489;28;20044;-62
2022/11/12 11:21:09;;;;;;;1.05;0.73;;;;;;;;;;5020344;28;20029;-62
2022/11/12 11:23:52;;;;;;;1.40;0.70;;;;;;;;;;5034268;28;20673;-63
2022/11/12 11:26:25;;;;;;;1.55;0.70;;;;;;;;;;5034275;28;20124;-62
2022/11/12 11:28:58;;;;;;;2.15;0.95;;;;;;;;;;5034084;28;20059;-63
2022/11/12 11:31:37;;;;;;;1.30;0.65;;;;;;;;;;5034202;28;20486;-63
2022/11/12 11:34:19;;;;;;;1.40;0.70;;;;;;;;;;5034046;28;20045;-64
2022/11/12 11:37:07;;;;;;;1.92;0.80;;;;;;;;;;5034061;28;20033;-61
2022/11/12 11:39:52;;;;;;;1.42;0.68;;;;;;;;;;5033781;28;20116;-63
2022/11/12 11:42:37;;;;;;;2.08;0.82;;;;;;;;;;5034006;28;20021;-63
2022/11/12 11:45:39;;;;;;;2.20;0.70;;;;;;;;;;5016787;28;20801;-62
2022/11/12 11:48:06;;;;;;;1.52;0.82;;;;;;;;;;5031092;28;20075;-62
2022/11/12 11:50:42;;;;;;;3.35;0.82;;;;;;;;;;5017201;28;20099;-62
2022/11/12 11:53:33;;;;;;;4.43;0.90;;;;;;;;;;5013728;28;20550;-63
2022/11/12 11:56:05;;;;;;;1.27;0.70;;;;;;;;;;5013953;28;20483;-63
2022/11/12 11:58:32;;;;;;;2.78;0.90;;;;;;;;;;5013268;28;20256;-62
2022/11/12 12:01:12;;;;;;;1.60;0.60;;;;;;;;;;5013364;28;20109;-62
2022/11/12 12:03:45;;;;;;;1.90;0.60;;;;;;;;;;5012011;28;20471;-62
2022/11/12 12:06:21;;;;;;;2.42;0.65;;;;;;;;;;5013109;28;20030;-62
2022/11/12 12:09:01;;;;;;;1.05;0.70;;;;;;;;;;5012411;28;20030;-62
2022/11/12 12:11:39;;;;;;;1.80;1.05;;;;;;;;;;5011690;28;20418;-63
2022/11/12 12:14:26;;;;;;;2.35;0.75;;;;;;;;;;5012741;28;20384;-63
2022/11/12 12:17:03;;;;;;;1.83;0.80;;;;;;;;;;5011709;28;20536;-62
2022/11/12 12:19:36;;;;;;;1.02;0.60;;;;;;;;;;5012692;28;20065;-62
2022/11/12 12:22:05;;;;;;;1.75;0.75;;;;;;;;;;5012813;28;20029;-62
2022/11/12 12:24:53;;;;;;;1.50;0.75;;;;;;;;;;5012474;28;20487;-62
2022/11/12 12:27:35;;;;;;;2.70;0.80;;;;;;;;;;5012393;28;20033;-62
2022/11/12 12:30:04;;;;;;;2.53;0.60;;;;;;;;;;5012717;28;20049;-67
2022/11/12 12:32:31;;;;;;;1.20;0.60;;;;;;;;;;5011787;28;20451;-67
2022/11/12 12:35:03;;;;;;;2.00;0.70;;;;;;;;;;5012619;28;20065;-65
2022/11/12 12:37:36;;;;;;;2.42;0.60;;;;;;;;;;5012388;28;20107;-66
2022/11/12 12:40:08;;;;;;;2.17;0.65;;;;;;;;;;5011928;28;20025;-66
2022/11/12 12:42:43;;;;;;;1.25;0.65;;;;;;;;;;5012355;28;20033;-67
2022/11/12 12:45:41;;;;;;;1.58;0.60;;;;;;;;;;5012726;28;20095;-67
2022/11/12 12:48:12;;;;;;;3.97;0.73;;;;;;;;;;4990928;28;20448;-68
2022/11/12 12:50:41;;;;;;;3.97;0.90;;;;;;;;;;5012536;28;20033;-68
2022/11/12 12:53:27;;;;;;;3.10;0.75;;;;;;;;;;5012472;28;20124;-68
2022/11/12 12:55:57;;;;;;;6.05;0.80;;;;;;;;;;5012155;28;20029;-66
2022/11/12 12:58:28;;;;;;;2.90;0.93;;;;;;;;;;5011976;28;20667;-67
2022/11/12 13:01:02;;;;;;;3.30;0.90;;;;;;;;;;5010489;28;20116;-67
2022/11/12 13:03:49;;;;;;;2.67;1.02;;;;;;;;;;5011018;28;20514;-66
2022/11/12 13:06:22;;;;;;;6.07;1.27;;;;;;;;;;5012126;28;20026;-68
2022/11/12 13:09:02;;;;;;;6.32;0.85;;;;;;;;;;5009996;28;20120;-67
2022/11/12 13:14:39;;;;;;;7.95;1.13;;;;;;;;;;5011476;28;20045;-68
2022/11/12 13:17:05;;;;;;;9.73;1.48;;;;;;;;;;5011964;28;20033;-66
2022/11/12 13:19:37;;;;;;;7.72;1.20;;;;;;;;;;5011971;28;20026;-68
2022/11/12 13:22:19;;;;;;;8.55;1.17;;;;;;;;;;5012015;28;20025;-66
2022/11/12 13:25:04;;;;;;;7.07;1.13;;;;;;;;;;5012356;28;20060;-66
2022/11/12 13:27:41;;;;;;;5.25;0.90;;;;;;;;;;5012241;28;20117;-65
2022/11/12 13:30:09;;;;;;;6.90;1.42;;;;;;;;;;5012398;28;20037;-66
2022/11/12 13:32:36;;;;;;;6.47;1.20;;;;;;;;;;5011960;28;20412;-66
2022/11/12 13:35:12;;;;;;;7.18;1.15;;;;;;;;;;5012002;28;20017;-66
2022/11/12 13:37:57;;;;;;;7.32;0.98;;;;;;;;;;5010556;28;20022;-69
2022/11/12 13:40:24;;;;;;;8.13;1.30;;;;;;;;;;5011191;28;20021;-65
2022/11/12 13:42:51;;;;;;;5.65;1.10;;;;;;;;;;5012313;28;20368;-65
2022/11/12 13:45:20;;;;;;;16.98;1.35;;;;;;;;;;5012242;28;20033;-68
2022/11/12 13:47:48;;;;;;;7.32;1.40;;;;;;;;;;5012007;28;20038;-66
2022/11/12 13:50:20;;;;;;;9.35;1.58;;;;;;;;;;5010556;28;20041;-67
2022/11/12 13:52:47;;;;;;;;;;;;;;;;;;4999288;28;20599;-68
2022/11/12 13:55:18;;;;;;;9.90;1.48;;;;;;;;;;5011584;28;20012;-67
2022/11/12 13:58:02;;;;;;;12.32;1.30;;;;;;;;;;5012034;28;20116;-66
2022/11/12 14:00:31;;;;;;;12.10;1.67;;;;;;;;;;5011667;28;20407;-67
2022/11/12 14:03:04;;;;;;;6.00;1.40;;;;;;;;;;5012263;28;20049;-67
2022/11/12 14:05:30;;;;;;;;;;;;;;;;;;5011915;28;20058;-66
2022/11/12 14:08:04;;;;;;;8.20;1.38;;;;;;;;;;5011444;28;19921;-66
2022/11/12 14:10:31;;;;;;;5.65;1.48;;;;;;;;;;5011732;28;20080;-66
2022/11/12 14:13:16;;;;;;;8.10;1.23;;;;;;;;;;5014671;28;20113;-66
2022/11/12 14:15:58;;;;;;;6.65;1.17;;;;;;;;;;5015818;28;20054;-67
2022/11/12 14:18:28;;;;;;;12.52;1.13;;;;;;;;;;5015114;28;20044;-67
2022/11/12 14:20:55;;;;;;;8.57;1.20;;;;;;;;;;5015710;28;20042;-66
2022/11/12 14:23:23;;;;;;;5.75;1.23;;;;;;;;;;5015586;28;20034;-66
2022/11/12 14:25:54;;;;;;;6.55;1.17;;;;;;;;;;5015614;28;20034;-65
2022/11/12 14:28:38;;;;;;;6.00;1.13;;;;;;;;;;5014780;28;20087;-67
2022/11/12 14:31:12;;;;;;;9.95;1.67;;;;;;;;;;5015225;28;20112;-67
2022/11/12 14:33:39;;;;;;;7.72;1.38;;;;;;;;;;5015505;28;20022;-66
2022/11/12 14:36:11;;;;;;;7.18;1.40;;;;;;;;;;5013678;28;20499;-67
2022/11/12 14:38:58;;;;;;;5.07;1.40;;;;;;;;;;5015341;28;20041;-67
2022/11/12 14:41:29;;;;;;;6.38;1.10;;;;;;;;;;5015233;28;20120;-67
2022/11/12 14:43:58;;;;;;;9.10;1.27;;;;;;;;;;5014586;28;20022;-66
2022/11/12 14:46:25;;;;;;;9.05;1.17;;;;;;;;;;5015137;28;20034;-66
2022/11/12 14:48:58;;;;;;;4.72;1.10;;;;;;;;;;5015296;28;20026;-67
2022/11/12 14:51:26;;;;;;;7.43;1.30;;;;;;;;;;5014181;28;20042;-65
2022/11/12 14:54:02;;;;;;;6.45;1.23;;;;;;;;;;5014481;28;20037;-64
2022/11/12 14:56:32;;;;;;;4.75;1.13;;;;;;;;;;5015005;28;20076;-64
2022/11/12 14:59:00;;;;;;;8.05;1.20;;;;;;;;;;5014869;28;20053;-64
2022/11/12 15:01:29;;;;;;;7.05;1.20;;;;;;;;;;5013809;28;20029;-64
2022/11/12 15:04:14;;;;;;;6.57;1.30;;;;;;;;;;5014839;28;20380;-64
2022/11/12 15:06:41;;;;;;;6.07;1.17;;;;;;;;;;5012667;28;20038;-64
2022/11/12 15:09:08;;;;;;;3.13;1.05;;;;;;;;;;5014027;28;20026;-65
2022/11/12 15:11:43;;;;;;;4.72;1.00;;;;;;;;;;5013986;28;20033;-62
2022/11/12 15:14:12;;;;;;;9.80;1.05;;;;;;;;;;5014038;28;20034;-65
2022/11/12 15:16:43;;;;;;;6.65;1.35;;;;;;;;;;5013024;28;20026;-65
2022/11/12 15:19:23;;;;;;;6.28;1.13;;;;;;;;;;5012236;28;20026;-65
2022/11/12 15:21:51;;;;;;;2.85;0.98;;;;;;;;;;5009644;28;20038;-63
2022/11/12 15:24:26;;;;;;;8.05;1.02;;;;;;;;;;5009962;28;20041;-64